Time,TemperatureF,DewpointF,PressureIn,WindDirection,WindDirectionDegrees,WindSpeedMPH,WindSpeedGustMPH,Humidity,HourlyPrecipIn,Conditions,Clouds,dailyrainin,SoftwareType,DateUTC
2013-08-21 11:55:00,77.0,69.0,30.09,ESE,113,1.0,6.0,76,-99.99,,,-99.99,,2013-08-21 15:55:00,
2013-08-21 12:13:00,79.0,70.0,30.08,SSE,150,2.0,8.0,73,-99.99,,,-99.99,,2013-08-21 16:13:00,
2013-08-21 12:24:00,79.0,69.0,30.07,SE,137,2.0,7.0,71,-99.99,,,-99.99,,2013-08-21 16:24:00,
2013-08-21 12:43:00,79.0,69.0,30.07,SE,139,1.0,4.0,71,-99.99,,,-99.99,,2013-08-21 16:43:00,
2013-08-21 12:53:00,80.0,69.0,30.06,SE,130,3.0,9.0,70,-99.99,,,-99.99,,2013-08-21 16:53:00,
2013-08-21 13:13:00,80.0,70.0,30.06,SE,130,3.0,7.0,71,-99.99,,,-99.99,,2013-08-21 17:13:00,
2013-08-21 13:23:00,82.0,70.0,30.05,SE,138,1.0,6.0,67,-99.99,,,-99.99,,2013-08-21 17:23:00,
2013-08-21 13:43:00,84.0,69.0,30.04,South,188,4.0,7.0,61,-99.99,,,-99.99,,2013-08-21 17:43:00,
2013-08-21 14:42:00,87.0,67.0,30.02,South,182,2.0,9.0,51,-99.99,,,-99.99,,2013-08-21 18:42:00,
2013-08-21 15:22:00,87.0,67.0,30.00,South,190,1.0,12.0,51,-99.99,,,-99.99,,2013-08-21 19:22:00,
2013-08-21 15:52:00,86.0,66.0,30.00,SW,225,1.0,10.0,52,-99.99,,,-99.99,,2013-08-21 19:52:00,
2013-08-21 16:11:00,86.0,67.0,30.00,SW,229,3.0,7.0,53,-99.99,,,-99.99,,2013-08-21 20:11:00,
2013-08-21 16:22:00,87.0,66.0,29.99,South,191,4.0,10.0,50,-99.99,,,-99.99,,2013-08-21 20:22:00,
2013-08-21 16:52:00,88.0,65.0,29.98,West,262,6.0,11.0,47,-99.99,,,-99.99,,2013-08-21 20:52:00,
2013-08-21 17:12:00,87.0,65.0,29.98,NW,305,8.0,14.0,48,-99.99,,,-99.99,,2013-08-21 21:12:00,
2013-08-21 17:22:00,86.0,65.0,29.98,West,274,5.0,12.0,49,-99.99,,,-99.99,,2013-08-21 21:22:00,
2013-08-21 17:55:00,87.0,65.0,29.97,SW,225,4.0,10.0,48,-99.99,,,-99.99,,2013-08-21 21:55:00,
2013-08-21 18:14:00,87.0,65.0,29.97,West,276,3.0,9.0,48,-99.99,,,-99.99,,2013-08-21 22:14:00,
2013-08-21 18:24:00,87.0,64.0,29.97,SW,219,4.0,9.0,47,-99.99,,,-99.99,,2013-08-21 22:24:00,
2013-08-21 18:53:00,87.0,64.0,29.97,SW,236,4.0,9.0,47,-99.99,,,-99.99,,2013-08-21 22:53:00,
2013-08-21 19:13:00,87.0,65.0,29.96,SW,233,6.0,10.0,48,-99.99,,,-99.99,,2013-08-21 23:13:00,
2013-08-21 19:22:00,86.0,63.0,29.97,WSW,250,4.0,9.0,47,-99.99,,,-99.99,,2013-08-21 23:22:00,
2013-08-21 19:53:00,84.0,66.0,29.96,WSW,239,2.0,7.0,54,-99.99,,,-99.99,,2013-08-21 23:53:00,
2013-08-21 20:12:00,83.0,66.0,29.95,WSW,245,3.0,9.0,56,-99.99,,,-99.99,,2013-08-22 00:12:00,
2013-08-21 20:22:00,82.0,66.0,29.96,WSW,257,3.0,5.0,58,-99.99,,,-99.99,,2013-08-22 00:22:00,
2013-08-21 20:42:00,82.0,66.0,29.95,WSW,258,0.0,4.0,59,-99.99,,,-99.99,,2013-08-22 00:42:00,
2013-08-21 20:52:00,81.0,66.0,29.95,WSW,258,1.0,4.0,61,-99.99,,,-99.99,,2013-08-22 00:52:00,
2013-08-21 21:12:00,80.0,66.0,29.95,WSW,258,2.0,5.0,63,-99.99,,,-99.99,,2013-08-22 01:12:00,
2013-08-21 21:22:00,79.0,67.0,29.95,WSW,255,0.0,1.0,66,-99.99,,,-99.99,,2013-08-22 01:22:00,
2013-08-21 21:42:00,79.0,67.0,29.96,WSW,256,0.0,3.0,67,-99.99,,,-99.99,,2013-08-22 01:42:00,
2013-08-21 21:52:00,78.0,67.0,29.97,WSW,256,0.0,1.0,69,-99.99,,,-99.99,,2013-08-22 01:52:00,
2013-08-21 22:12:00,77.0,66.0,29.98,WSW,256,0.0,0.0,70,-99.99,,,-99.99,,2013-08-22 02:12:00,
2013-08-21 22:22:00,76.0,67.0,30.00,WSW,256,0.0,1.0,73,-99.99,,,-99.99,,2013-08-22 02:22:00,
2013-08-21 23:12:00,73.0,66.0,30.01,WSW,256,0.0,3.0,79,-99.99,,,-99.99,,2013-08-22 03:12:00,
2013-08-21 23:22:00,74.0,67.0,30.00,WSW,256,0.0,2.0,79,-99.99,,,-99.99,,2013-08-22 03:22:00,
2013-08-21 23:45:00,73.0,66.0,30.00,WSW,256,0.0,0.0,78,-99.99,,,-99.99,,2013-08-22 03:45:00,
2013-08-21 23:54:00,73.0,66.0,30.00,WSW,256,0.0,1.0,79,-99.99,,,-99.99,,2013-08-22 03:54:00,